createdAt,value
2017-07-15T00:00:31.717Z,5.00
2017-07-15T00:02:59.301Z,5.17
2017-07-15T00:05:26.935Z,4.63
2017-07-15T00:07:54.542Z,5.17
2017-07-15T00:10:22.509Z,5.30
2017-07-15T00:12:50.288Z,5.27
2017-07-15T00:15:17.935Z,4.00
2017-07-15T00:17:45.568Z,3.97
2017-07-15T00:20:13.170Z,3.67
2017-07-15T00:22:40.793Z,3.90
2017-07-15T00:25:08.362Z,4.13
2017-07-15T00:27:36.242Z,3.20
2017-07-15T00:30:03.846Z,3.40
2017-07-15T00:32:31.429Z,3.90
2017-07-15T00:34:59.055Z,3.10
2017-07-15T00:37:26.619Z,3.70
2017-07-15T00:39:54.503Z,3.50
2017-07-15T00:42:22.133Z,4.10
2017-07-15T00:44:49.738Z,3.83
2017-07-15T00:47:17.343Z,4.30
2017-07-15T00:49:44.931Z,3.50
2017-07-15T00:52:12.607Z,4.00
2017-07-15T00:54:40.192Z,4.13
2017-07-15T00:57:08.045Z,3.70
2017-07-15T00:59:35.658Z,4.37
2017-07-15T01:02:03.253Z,4.40
2017-07-15T01:04:30.871Z,4.40
2017-07-15T01:06:58.480Z,4.37
2017-07-15T01:09:26.123Z,4.97
2017-07-15T01:11:53.843Z,4.37
2017-07-15T01:14:21.750Z,4.90
2017-07-15T01:16:49.344Z,4.90
2017-07-15T01:19:16.921Z,4.93
2017-07-15T01:21:44.544Z,4.73
2017-07-15T01:24:12.153Z,4.63
2017-07-15T01:26:40.112Z,4.70
2017-07-15T01:29:07.717Z,4.97
2017-07-15T01:31:35.330Z,5.07
2017-07-15T01:34:02.969Z,4.97
2017-07-15T01:36:30.566Z,5.70
2017-07-15T01:38:58.159Z,5.60
2017-07-15T01:41:25.892Z,6.53
2017-07-15T01:43:53.860Z,6.00
2017-07-15T01:46:21.458Z,6.40
2017-07-15T01:48:49.057Z,7.40
2017-07-15T01:51:16.658Z,7.53
2017-07-15T01:53:44.237Z,6.90
2017-07-15T01:56:12.130Z,7.50
2017-07-15T01:58:39.731Z,7.93
2017-07-15T02:01:07.317Z,7.63
2017-07-15T02:03:34.933Z,8.53
2017-07-15T02:06:02.537Z,8.40
2017-07-15T02:08:30.149Z,9.00
2017-07-15T02:10:57.748Z,9.27
2017-07-15T02:13:25.626Z,10.07
2017-07-15T02:15:53.214Z,10.33
2017-07-15T02:18:20.810Z,9.80
2017-07-15T02:20:48.421Z,11.50
2017-07-15T02:23:16.041Z,11.40
2017-07-15T02:25:43.669Z,11.63
2017-07-15T02:28:11.271Z,11.40
2017-07-15T02:30:39.309Z,11.30
2017-07-15T02:33:06.898Z,12.00
2017-07-15T02:35:34.521Z,12.97
2017-07-15T02:38:02.124Z,13.00
2017-07-15T02:40:29.722Z,12.80
2017-07-15T02:42:57.623Z,12.60
2017-07-15T02:45:25.216Z,12.73
2017-07-15T02:47:52.841Z,13.90
2017-07-15T02:50:20.456Z,13.87
2017-07-15T02:52:48.061Z,13.90
2017-07-15T02:55:15.737Z,14.47
2017-07-15T02:57:43.366Z,14.87
2017-07-15T03:00:11.324Z,16.03
2017-07-15T03:02:38.931Z,15.20
2017-07-15T03:05:06.534Z,15.30
2017-07-15T03:07:34.189Z,16.30
2017-07-15T03:10:01.768Z,16.60
2017-07-15T03:12:29.835Z,14.77
2017-07-15T03:14:57.434Z,15.97
2017-07-15T03:17:25.032Z,15.73
2017-07-15T03:19:52.650Z,15.80
2017-07-15T03:22:20.257Z,15.57
2017-07-15T03:24:47.873Z,14.80
2017-07-15T03:27:40.239Z,15.30
2017-07-15T03:30:07.862Z,16.17
2017-07-15T03:32:35.465Z,15.17
2017-07-15T03:35:03.345Z,16.17
2017-07-15T03:37:30.961Z,14.97
2017-07-15T03:39:58.565Z,14.03
2017-07-15T03:42:26.184Z,14.20
2017-07-15T03:44:53.783Z,14.47
2017-07-15T03:47:21.408Z,15.20
2017-07-15T03:49:49.016Z,13.17
2017-07-15T03:52:16.950Z,14.27
2017-07-15T03:54:44.561Z,14.10
2017-07-15T03:57:12.170Z,14.50
2017-07-15T03:59:39.851Z,14.47
2017-07-15T04:02:07.480Z,13.97
2017-07-15T04:04:35.450Z,14.87
2017-07-15T04:07:03.062Z,13.60
2017-07-15T04:09:30.669Z,12.73
2017-07-15T04:11:58.287Z,13.60
2017-07-15T04:14:25.910Z,13.37
2017-07-15T04:16:53.542Z,13.53
2017-07-15T04:19:21.229Z,13.47
2017-07-15T04:21:49.205Z,14.10
2017-07-15T04:24:16.818Z,13.03
2017-07-15T04:26:44.412Z,13.13
2017-07-15T04:29:12.074Z,13.57
2017-07-15T04:31:39.675Z,13.37
2017-07-15T04:34:07.700Z,14.27
2017-07-15T04:36:35.341Z,12.73
2017-07-15T04:39:02.939Z,12.97
2017-07-15T04:41:30.574Z,14.97
2017-07-15T04:43:58.151Z,14.17
2017-07-15T04:46:25.778Z,13.73
2017-07-15T04:48:53.382Z,14.20
2017-07-15T04:51:21.299Z,14.33
2017-07-15T04:53:48.897Z,13.07
2017-07-15T04:56:16.493Z,13.30
2017-07-15T04:58:44.161Z,13.30
2017-07-15T05:01:11.787Z,12.50
2017-07-15T05:03:39.422Z,13.53
2017-07-15T05:06:07.018Z,13.60
2017-07-15T05:08:34.896Z,13.00
2017-07-15T05:11:02.487Z,11.80
2017-07-15T05:13:30.093Z,12.47
2017-07-15T05:15:57.692Z,12.77
2017-07-15T05:18:25.290Z,13.33
2017-07-15T05:20:53.249Z,12.30
2017-07-15T05:23:20.833Z,11.90
2017-07-15T05:25:48.446Z,12.07
2017-07-15T05:28:16.076Z,11.30
2017-07-15T05:30:43.694Z,11.77
2017-07-15T05:33:11.314Z,11.50
2017-07-15T05:35:38.902Z,11.70
2017-07-15T05:38:06.800Z,12.67
2017-07-15T05:40:34.424Z,12.70
2017-07-15T05:43:02.009Z,11.60
2017-07-15T05:45:29.602Z,11.50
2017-07-15T05:47:57.309Z,11.50
2017-07-15T05:50:25.335Z,10.30
2017-07-15T05:52:52.938Z,11.60
2017-07-15T05:55:20.518Z,9.17
2017-07-15T05:57:48.166Z,9.17
2017-07-15T06:00:15.754Z,7.60
2017-07-15T06:02:43.690Z,8.20
2017-07-15T06:05:11.290Z,7.90
2017-07-15T06:07:39.860Z,8.50
2017-07-15T06:10:07.760Z,7.90
2017-07-15T06:12:35.370Z,7.33
2017-07-15T06:15:03.005Z,6.90
2017-07-15T06:17:30.623Z,7.30
2017-07-15T06:19:58.221Z,7.37
2017-07-15T06:22:26.126Z,7.27
2017-07-15T06:24:53.747Z,7.47
2017-07-15T06:27:21.381Z,7.53
2017-07-15T06:29:48.997Z,7.20
2017-07-15T06:32:16.613Z,7.33
2017-07-15T06:34:44.301Z,7.10
2017-07-15T06:37:11.911Z,6.93
2017-07-15T06:39:39.839Z,6.50
2017-07-15T06:42:07.485Z,6.23
2017-07-15T06:44:35.095Z,6.43
2017-07-15T06:47:02.739Z,7.10
2017-07-15T06:49:30.379Z,7.10
2017-07-15T06:51:58.505Z,7.10
2017-07-15T06:54:26.181Z,6.13
2017-07-15T06:56:53.808Z,6.20
2017-07-15T06:59:21.434Z,6.10
2017-07-15T07:01:49.046Z,6.50
2017-07-15T07:04:16.661Z,5.50
2017-07-15T07:06:44.293Z,5.90
2017-07-15T07:09:12.205Z,6.63
2017-07-15T07:11:39.793Z,5.63
2017-07-15T07:14:07.402Z,6.30
2017-07-15T07:16:35.023Z,7.20
2017-07-15T07:19:02.625Z,5.97
2017-07-15T07:21:30.538Z,5.30
2017-07-15T07:23:58.247Z,5.40
2017-07-15T07:26:25.856Z,5.53
2017-07-15T07:28:53.501Z,4.13
2017-07-15T07:31:21.841Z,5.40
2017-07-15T07:33:49.785Z,4.00
2017-07-15T07:36:17.380Z,4.20
2017-07-15T07:38:44.983Z,3.90
2017-07-15T07:41:12.641Z,3.33
2017-07-15T07:43:40.250Z,3.10
2017-07-15T07:46:07.884Z,2.90
2017-07-15T07:48:35.485Z,3.90
2017-07-15T07:51:03.534Z,4.03
2017-07-15T07:53:31.138Z,3.70
2017-07-15T07:55:58.750Z,4.00
2017-07-15T07:58:26.409Z,4.53
2017-07-15T08:00:54.009Z,4.33
2017-07-15T08:03:21.900Z,4.07
2017-07-15T08:05:49.501Z,3.83
2017-07-15T08:08:17.128Z,3.50
2017-07-15T08:10:44.749Z,4.10
2017-07-15T08:13:12.415Z,3.80
2017-07-15T08:15:40.023Z,4.10
2017-07-15T08:18:07.625Z,4.30
2017-07-15T08:20:35.628Z,4.40
2017-07-15T08:23:03.232Z,3.60
2017-07-15T08:25:30.826Z,4.40
2017-07-15T08:27:59.366Z,3.70
2017-07-15T08:30:26.953Z,3.40
2017-07-15T08:32:54.868Z,3.03
2017-07-15T08:35:27.818Z,3.10
2017-07-15T08:37:55.770Z,3.40
2017-07-15T08:40:23.391Z,4.20
2017-07-15T08:42:50.985Z,3.50
2017-07-15T08:45:18.629Z,3.67
2017-07-15T08:47:46.214Z,3.40
2017-07-15T08:50:13.881Z,3.28
2017-07-15T08:52:41.470Z,3.10
2017-07-15T08:55:09.383Z,3.97
2017-07-15T08:57:36.987Z,5.45
2017-07-15T09:00:04.595Z,3.87
2017-07-15T09:02:32.222Z,3.27
2017-07-15T09:04:59.852Z,9.67
2017-07-15T09:07:27.489Z,3.43
2017-07-15T09:09:55.101Z,3.80
2017-07-15T09:12:22.996Z,5.17
2017-07-15T09:14:51.715Z,3.83
2017-07-15T09:17:19.340Z,2.87
2017-07-15T09:19:46.938Z,3.67
2017-07-15T09:22:14.524Z,3.40
2017-07-15T09:24:42.594Z,3.60
2017-07-15T09:27:10.202Z,3.60
2017-07-15T09:29:37.795Z,3.63
2017-07-15T09:32:05.404Z,2.77
2017-07-15T09:34:32.980Z,2.90
2017-07-15T09:37:00.592Z,3.30
2017-07-15T09:39:28.224Z,2.90
2017-07-15T09:41:56.217Z,4.60
2017-07-15T09:44:23.940Z,2.90
2017-07-15T09:46:51.888Z,2.63
2017-07-15T09:49:19.561Z,3.03
2017-07-15T09:51:47.144Z,3.27
2017-07-15T09:54:15.071Z,3.17
2017-07-15T09:56:42.669Z,2.80
2017-07-15T09:59:10.303Z,3.30
2017-07-15T10:01:37.933Z,2.77
2017-07-15T10:04:05.531Z,3.10
2017-07-15T10:06:33.196Z,3.00
2017-07-15T10:09:00.789Z,2.97
2017-07-15T10:11:28.757Z,2.77
2017-07-15T10:13:56.356Z,2.80
2017-07-15T10:16:23.950Z,2.60
2017-07-15T10:18:51.595Z,3.30
2017-07-15T10:21:19.210Z,2.73
2017-07-15T10:23:47.262Z,2.80
2017-07-15T10:26:14.880Z,2.53
2017-07-15T10:28:42.504Z,2.20
2017-07-15T10:31:10.156Z,2.30
2017-07-15T10:33:37.728Z,2.37
2017-07-15T10:36:05.617Z,2.00
2017-07-15T10:38:33.224Z,1.70
2017-07-15T10:41:00.843Z,1.90
2017-07-15T10:43:28.471Z,1.80
2017-07-15T10:45:56.093Z,1.63
2017-07-15T10:48:23.757Z,2.07
2017-07-15T10:50:51.402Z,2.50
2017-07-15T10:53:19.311Z,2.20
2017-07-15T10:55:46.960Z,2.50
2017-07-15T10:58:14.639Z,1.97
2017-07-15T11:00:42.255Z,2.07
2017-07-15T11:03:09.835Z,2.10
2017-07-15T11:05:37.477Z,2.00
2017-07-15T11:08:05.093Z,2.20
2017-07-15T11:10:32.804Z,2.10
2017-07-15T11:13:00.412Z,1.93
2017-07-15T11:15:28.057Z,2.03
2017-07-15T11:17:55.661Z,2.03
2017-07-15T11:20:23.282Z,2.23
2017-07-15T11:22:50.902Z,2.20
2017-07-15T11:25:18.526Z,1.83
2017-07-15T11:27:46.109Z,1.90
2017-07-15T11:30:13.740Z,2.00
2017-07-15T11:32:41.338Z,1.70
2017-07-15T11:35:08.943Z,2.20
2017-07-15T11:37:36.528Z,1.50
2017-07-15T11:40:04.166Z,1.67
2017-07-15T11:42:31.834Z,1.90
2017-07-15T11:44:59.814Z,1.70
2017-07-15T11:47:27.417Z,2.00
2017-07-15T11:49:55.020Z,1.73
2017-07-15T11:52:22.688Z,1.60
2017-07-15T11:54:50.316Z,1.80
2017-07-15T11:57:18.285Z,1.50
2017-07-15T11:59:45.922Z,1.67
2017-07-15T12:02:13.514Z,2.00
2017-07-15T12:04:41.137Z,1.90
2017-07-15T12:07:08.831Z,2.20
2017-07-15T12:09:36.796Z,2.20
2017-07-15T12:12:04.394Z,2.20
2017-07-15T12:14:32.086Z,1.90
2017-07-15T12:16:59.751Z,1.90
2017-07-15T12:19:28.320Z,1.60
2017-07-15T12:21:56.284Z,1.60
2017-07-15T12:24:23.899Z,1.30
2017-07-15T12:26:51.480Z,1.40
2017-07-15T12:29:19.111Z,1.70
2017-07-15T12:31:46.694Z,1.83
2017-07-15T12:34:14.373Z,1.60
2017-07-15T12:36:42.068Z,1.70
2017-07-15T12:39:09.969Z,1.80
2017-07-15T12:41:37.567Z,1.83
2017-07-15T12:44:05.158Z,1.70
2017-07-15T12:46:32.781Z,1.80
2017-07-15T12:49:00.402Z,1.50
2017-07-15T12:51:28.020Z,1.63
2017-07-15T12:53:55.675Z,1.63
2017-07-15T12:56:23.396Z,1.73
2017-07-15T12:58:50.997Z,1.57
2017-07-15T13:01:18.620Z,1.53
2017-07-15T13:03:46.306Z,2.00
2017-07-15T13:06:13.970Z,1.70
2017-07-15T13:08:41.582Z,1.67
2017-07-15T13:11:09.498Z,1.50
2017-07-15T13:13:37.076Z,2.00
2017-07-15T13:16:04.675Z,1.50
2017-07-15T13:18:32.295Z,1.70
2017-07-15T13:20:59.886Z,1.80
2017-07-15T13:23:27.840Z,2.50
2017-07-15T13:25:55.452Z,2.17
2017-07-15T13:28:23.042Z,2.00
2017-07-15T13:30:50.650Z,2.60
2017-07-15T13:33:18.231Z,2.63
2017-07-15T13:35:45.837Z,2.23
2017-07-15T13:38:13.486Z,3.20
2017-07-15T13:40:41.357Z,2.37
2017-07-15T13:43:08.937Z,3.87
2017-07-15T13:45:36.543Z,1.90
2017-07-15T13:48:04.205Z,2.27
2017-07-15T13:50:31.792Z,2.33
2017-07-15T13:52:59.835Z,2.10
2017-07-15T13:55:27.414Z,3.23
2017-07-15T13:57:55.012Z,3.27
2017-07-15T14:00:22.638Z,1.73
2017-07-15T14:02:50.240Z,1.80
2017-07-15T14:05:18.267Z,1.60
2017-07-15T14:07:45.876Z,1.53
2017-07-15T14:10:13.499Z,1.70
2017-07-15T14:12:41.131Z,1.67
2017-07-15T14:15:08.741Z,1.80
2017-07-15T14:17:36.795Z,1.70
2017-07-15T14:20:04.391Z,1.60
2017-07-15T14:22:31.970Z,1.57
2017-07-15T14:24:59.613Z,1.93
2017-07-15T14:27:27.204Z,2.13
2017-07-15T14:29:54.829Z,1.97
2017-07-15T14:32:22.457Z,2.00
2017-07-15T14:34:50.392Z,2.00
2017-07-15T14:37:17.990Z,2.57
2017-07-15T14:39:45.604Z,2.20
2017-07-15T14:42:13.218Z,2.67
2017-07-15T14:44:40.792Z,2.20
2017-07-15T14:47:08.402Z,2.00
2017-07-15T14:49:36.036Z,2.53
2017-07-15T14:52:04.118Z,3.17
2017-07-15T14:54:31.719Z,2.40
2017-07-15T14:56:59.323Z,2.20
2017-07-15T14:59:26.940Z,2.30
2017-07-15T15:01:54.640Z,1.90
2017-07-15T15:04:22.546Z,1.70
2017-07-15T15:06:50.141Z,1.63
2017-07-15T15:09:17.743Z,1.43
2017-07-15T15:11:45.360Z,1.47
2017-07-15T15:14:13.013Z,1.70
2017-07-15T15:16:40.645Z,1.87
2017-07-15T15:19:08.261Z,1.70
2017-07-15T15:21:35.885Z,2.20
2017-07-15T15:24:03.473Z,1.97
2017-07-15T15:26:31.361Z,1.90
2017-07-15T15:28:58.949Z,1.70
2017-07-15T15:31:26.577Z,1.90
2017-07-15T15:33:54.196Z,1.70
2017-07-15T15:36:21.841Z,1.90
2017-07-15T15:38:49.802Z,1.73
2017-07-15T15:41:17.392Z,1.60
2017-07-15T15:43:44.995Z,1.70
2017-07-15T15:46:12.596Z,1.93
2017-07-15T15:48:40.169Z,1.73
2017-07-15T15:51:07.793Z,1.80
2017-07-15T15:53:35.405Z,1.67
2017-07-15T15:56:03.381Z,2.00
2017-07-15T15:58:30.968Z,2.13
2017-07-15T16:00:58.569Z,1.43
2017-07-15T16:03:26.253Z,1.80
2017-07-15T16:05:53.839Z,1.77
2017-07-15T16:08:21.463Z,1.63
2017-07-15T16:10:49.117Z,1.50
2017-07-15T16:13:17.139Z,1.30
2017-07-15T16:15:44.726Z,1.60
2017-07-15T16:18:12.338Z,1.60
2017-07-15T16:20:39.959Z,1.50
2017-07-15T16:23:07.614Z,1.60
2017-07-15T16:25:35.646Z,1.40
2017-07-15T16:28:03.273Z,1.30
2017-07-15T16:30:30.916Z,1.40
2017-07-15T16:32:58.538Z,1.10
2017-07-15T16:35:26.139Z,1.33
2017-07-15T16:37:54.613Z,1.60
2017-07-15T16:40:22.203Z,1.20
2017-07-15T16:42:50.134Z,1.70
2017-07-15T16:45:17.788Z,1.83
2017-07-15T16:47:45.388Z,1.37
2017-07-15T16:50:13.133Z,1.20
2017-07-15T16:52:40.737Z,1.60
2017-07-15T16:55:08.649Z,1.73
2017-07-15T16:57:36.251Z,1.40
2017-07-15T17:00:03.852Z,1.97
2017-07-15T17:02:31.478Z,1.50
2017-07-15T17:04:59.082Z,1.70
2017-07-15T17:07:26.688Z,1.70
2017-07-15T17:09:54.331Z,1.60
2017-07-15T17:12:22.320Z,1.70
2017-07-15T17:14:49.929Z,1.50
2017-07-15T17:17:17.556Z,1.63
2017-07-15T17:19:45.153Z,1.37
2017-07-15T17:22:12.746Z,1.10
2017-07-15T17:24:40.363Z,1.40
2017-07-15T17:27:07.958Z,1.47
2017-07-15T17:29:35.642Z,1.20
2017-07-15T17:32:03.269Z,1.50
2017-07-15T17:34:30.859Z,1.60
2017-07-15T17:36:58.744Z,1.27
2017-07-15T17:39:26.426Z,1.63
2017-07-15T17:41:54.029Z,1.67
2017-07-15T17:44:21.671Z,1.60
2017-07-15T17:46:49.260Z,1.53
2017-07-15T17:49:17.148Z,1.80
2017-07-15T17:51:44.768Z,1.50
2017-07-15T17:54:12.367Z,1.17
2017-07-15T17:56:40.020Z,1.40
2017-07-15T17:59:07.707Z,1.10
2017-07-15T18:01:35.601Z,1.10
2017-07-15T18:04:03.228Z,1.40
2017-07-15T18:06:30.817Z,1.13
2017-07-15T18:08:58.423Z,1.20
2017-07-15T18:11:26.027Z,1.10
2017-07-15T18:13:54.593Z,1.10
2017-07-15T18:16:22.200Z,1.37
2017-07-15T18:18:50.168Z,1.40
2017-07-15T18:21:17.766Z,1.17
2017-07-15T18:23:45.398Z,1.33
2017-07-15T18:26:12.998Z,1.30
2017-07-15T18:28:40.610Z,1.10
2017-07-15T18:31:08.195Z,1.13
2017-07-15T18:33:35.830Z,1.50
2017-07-15T18:36:03.465Z,1.50
2017-07-15T18:38:31.129Z,1.37
2017-07-15T18:40:58.752Z,1.30
2017-07-15T18:43:26.352Z,1.40
2017-07-15T18:45:54.086Z,1.50
2017-07-15T18:48:21.685Z,1.50
2017-07-15T18:50:49.327Z,1.20
2017-07-15T18:53:16.934Z,1.13
2017-07-15T18:55:44.635Z,1.23
2017-07-15T18:58:12.319Z,1.30
2017-07-15T19:00:39.943Z,1.10
2017-07-15T19:03:07.571Z,1.43
2017-07-15T19:05:35.320Z,1.50
2017-07-15T19:08:02.904Z,1.43
2017-07-15T19:10:30.519Z,1.27
2017-07-15T19:12:58.149Z,1.10
2017-07-15T19:15:25.838Z,1.40
2017-07-15T19:17:54.549Z,1.53
2017-07-15T19:20:22.143Z,1.20
2017-07-15T19:22:50.030Z,1.40
2017-07-15T19:25:17.627Z,1.47
2017-07-15T19:27:45.241Z,1.40
2017-07-15T19:30:12.875Z,1.47
2017-07-15T19:32:40.492Z,1.20
2017-07-15T19:35:08.114Z,1.20
2017-07-15T19:37:35.753Z,1.10
2017-07-15T19:40:03.801Z,1.20
2017-07-15T19:42:31.382Z,1.30
2017-07-15T19:44:59.042Z,1.40
2017-07-15T19:47:26.652Z,1.20
2017-07-15T19:49:54.244Z,1.77
2017-07-15T19:52:21.870Z,1.60
2017-07-15T19:54:49.495Z,1.90
2017-07-15T19:57:17.110Z,1.80
2017-07-15T19:59:44.750Z,1.73
2017-07-15T20:02:12.349Z,1.83
2017-07-15T20:04:39.981Z,1.90
2017-07-15T20:07:07.575Z,1.63
2017-07-15T20:09:35.839Z,1.70
2017-07-15T20:12:03.483Z,1.40
2017-07-15T20:14:31.135Z,1.70
2017-07-15T20:16:58.773Z,1.60
2017-07-15T20:19:26.383Z,1.50
2017-07-15T20:21:54.117Z,1.40
2017-07-15T20:24:21.792Z,1.73
2017-07-15T20:26:49.683Z,1.40
2017-07-15T20:29:17.300Z,1.60
2017-07-15T20:31:44.906Z,1.60
2017-07-15T20:34:12.622Z,1.70
2017-07-15T20:36:56.134Z,1.40
2017-07-15T20:39:23.776Z,1.60
2017-07-15T20:41:51.426Z,1.60
2017-07-15T20:44:19.064Z,1.80
2017-07-15T20:46:46.652Z,1.90
2017-07-15T20:49:14.269Z,2.30
2017-07-15T20:51:41.871Z,2.07
2017-07-15T20:54:10.110Z,1.70
2017-07-15T20:56:37.812Z,1.60
2017-07-15T20:59:05.813Z,1.90
2017-07-15T21:01:33.404Z,2.10
2017-07-15T21:04:01.138Z,1.80
2017-07-15T21:06:28.739Z,2.03
2017-07-15T21:08:56.331Z,2.03
2017-07-15T21:11:24.017Z,1.80
2017-07-15T21:13:51.707Z,1.80
2017-07-15T21:16:19.332Z,1.80
2017-07-15T21:18:47.013Z,1.80
2017-07-15T21:21:14.902Z,1.60
2017-07-15T21:23:42.508Z,1.60
2017-07-15T21:26:10.231Z,1.60
2017-07-15T21:28:37.868Z,1.83
2017-07-15T21:31:05.476Z,1.60
2017-07-15T21:33:33.100Z,1.70
2017-07-15T21:36:00.694Z,1.80
2017-07-15T21:38:28.317Z,1.90
2017-07-15T21:40:55.919Z,2.20
2017-07-15T21:43:23.915Z,1.80
2017-07-15T21:45:51.519Z,1.50
2017-07-15T21:48:19.107Z,2.23
2017-07-15T21:50:46.719Z,2.07
2017-07-15T21:53:14.308Z,1.93
2017-07-15T21:55:41.938Z,2.40
2017-07-15T21:58:09.523Z,2.10
2017-07-15T22:00:37.399Z,2.27
2017-07-15T22:03:04.979Z,2.30
2017-07-15T22:05:32.566Z,2.10
2017-07-15T22:08:00.199Z,2.20
2017-07-15T22:10:27.949Z,2.50
2017-07-15T22:12:55.555Z,2.47
2017-07-15T22:15:23.137Z,2.40
2017-07-15T22:17:50.752Z,2.13
2017-07-15T22:20:18.324Z,2.80
2017-07-15T22:22:46.194Z,2.27
2017-07-15T22:25:13.774Z,2.20
2017-07-15T22:27:41.353Z,2.20
2017-07-15T22:30:08.962Z,2.40
2017-07-15T22:32:36.540Z,2.50
2017-07-15T22:35:04.223Z,2.30
2017-07-15T22:37:31.808Z,2.30
2017-07-15T22:39:59.888Z,2.50
2017-07-15T22:42:27.485Z,2.20
2017-07-15T22:44:55.095Z,2.20
2017-07-15T22:47:22.741Z,2.40
2017-07-15T22:49:50.333Z,2.83
2017-07-15T22:52:17.228Z,2.20
2017-07-15T22:54:44.843Z,2.40
2017-07-15T22:57:12.476Z,2.50
2017-07-15T22:59:40.062Z,2.60
2017-07-15T23:02:07.689Z,2.50
2017-07-15T23:04:35.317Z,2.57
2017-07-15T23:07:02.915Z,2.60
2017-07-15T23:09:30.498Z,2.53
2017-07-15T23:11:58.108Z,2.67
2017-07-15T23:14:25.676Z,2.87
2017-07-15T23:16:53.583Z,2.43
2017-07-15T23:19:21.167Z,2.97
2017-07-15T23:21:48.754Z,2.90
2017-07-15T23:24:16.348Z,2.40
2017-07-15T23:26:43.986Z,2.77
2017-07-15T23:29:11.642Z,2.90
2017-07-15T23:31:39.240Z,2.97
2017-07-15T23:34:06.851Z,2.77
2017-07-15T23:36:34.435Z,2.63
2017-07-15T23:39:02.499Z,2.50
2017-07-15T23:41:30.091Z,3.10
2017-07-15T23:43:57.666Z,3.33
2017-07-15T23:46:25.263Z,2.70
2017-07-15T23:48:52.868Z,3.17
2017-07-15T23:51:20.470Z,2.70
2017-07-15T23:53:48.080Z,3.50
2017-07-15T23:56:15.706Z,3.13
2017-07-15T23:58:43.296Z,3.37
